Terminal Aerodrome Forecast
Issued by NWS

Current Version | Previous Version | Text Only | Print | Product List | Glossary On
Versions: 1 2 3 4 5 6 7 8 9 10 11 12 13 14 15 16 17
000
FTUS44 KBMX 251740
TAFTCL
TAF
KTCL 251740Z 2518/2618 17009KT 6SM -SHRA BR BKN035 OVC110
     FM252200 15008KT P6SM SCT035 BKN050
     FM261200 14008KT P6SM OVC015=

USA.gov is the U.S. government's official web portal to all federal, state and local government web resources and services.